sensor_id;sensor_type;location;lat;lon;timestamp;P1;durP1;ratioP1;P2;durP2;ratioP2
52316;SDS011;38725;41.994;21.458;2022-08-11T00:00:38;8.68;;;5.18;;
52316;SDS011;38725;41.994;21.458;2022-08-11T00:03:05;7.38;;;5.35;;
52316;SDS011;38725;41.994;21.458;2022-08-11T00:05:32;9.63;;;5.15;;
52316;SDS011;38725;41.994;21.458;2022-08-11T00:07:59;6.68;;;4.90;;
52316;SDS011;38725;41.994;21.458;2022-08-11T00:10:27;7.35;;;5.10;;
52316;SDS011;38725;41.994;21.458;2022-08-11T00:12:58;7.10;;;5.53;;
52316;SDS011;38725;41.994;21.458;2022-08-11T00:15:26;10.32;;;5.57;;
52316;SDS011;38725;41.994;21.458;2022-08-11T00:17:56;6.45;;;5.13;;
52316;SDS011;38725;41.994;21.458;2022-08-11T00:20:27;10.60;;;5.40;;
52316;SDS011;38725;41.994;21.458;2022-08-11T00:22:58;7.22;;;4.97;;
52316;SDS011;38725;41.994;21.458;2022-08-11T00:25:25;8.07;;;5.40;;
52316;SDS011;38725;41.994;21.458;2022-08-11T00:27:52;7.43;;;5.05;;
52316;SDS011;38725;41.994;21.458;2022-08-11T00:30:18;11.65;;;5.75;;
52316;SDS011;38725;41.994;21.458;2022-08-11T00:32:53;5.90;;;5.10;;
52316;SDS011;38725;41.994;21.458;2022-08-11T00:35:22;6.95;;;4.68;;
52316;SDS011;38725;41.994;21.458;2022-08-11T00:37:51;6.75;;;5.13;;
52316;SDS011;38725;41.994;21.458;2022-08-11T00:40:25;7.13;;;5.20;;
52316;SDS011;38725;41.994;21.458;2022-08-11T01:00:48;6.80;;;4.75;;
52316;SDS011;38725;41.994;21.458;2022-08-11T01:08:35;5.95;;;4.20;;
52316;SDS011;38725;41.994;21.458;2022-08-11T01:40:24;7.28;;;5.55;;
52316;SDS011;38725;41.994;21.458;2022-08-11T01:46:27;8.40;;;6.75;;
52316;SDS011;38725;41.994;21.458;2022-08-11T01:53:59;11.23;;;6.43;;
52316;SDS011;38725;41.994;21.458;2022-08-11T01:59:09;10.30;;;7.63;;
52316;SDS011;38725;41.994;21.458;2022-08-11T02:12:13;11.50;;;7.30;;
52316;SDS011;38725;41.994;21.458;2022-08-11T02:14:48;8.27;;;6.68;;
52316;SDS011;38725;41.994;21.458;2022-08-11T02:17:20;8.95;;;6.88;;
52316;SDS011;38725;41.994;21.458;2022-08-11T02:19:58;10.43;;;6.93;;
52316;SDS011;38725;41.994;21.458;2022-08-11T02:25:36;8.77;;;6.78;;
52316;SDS011;38725;41.994;21.458;2022-08-11T02:30:40;8.93;;;7.05;;
52316;SDS011;38725;41.994;21.458;2022-08-11T02:33:31;8.30;;;6.60;;
52316;SDS011;38725;41.994;21.458;2022-08-11T02:41:15;11.50;;;7.70;;
52316;SDS011;38725;41.994;21.458;2022-08-11T02:44:09;10.13;;;7.18;;
52316;SDS011;38725;41.994;21.458;2022-08-11T02:46:48;10.40;;;6.80;;
52316;SDS011;38725;41.994;21.458;2022-08-11T02:55:09;9.18;;;6.10;;
52316;SDS011;38725;41.994;21.458;2022-08-11T03:01:11;9.40;;;7.15;;
52316;SDS011;38725;41.994;21.458;2022-08-11T03:03:29;10.20;;;6.50;;
52316;SDS011;38725;41.994;21.458;2022-08-11T03:08:35;9.25;;;6.72;;
52316;SDS011;38725;41.994;21.458;2022-08-11T03:16:53;8.43;;;6.03;;
52316;SDS011;38725;41.994;21.458;2022-08-11T03:19:21;9.45;;;7.18;;
52316;SDS011;38725;41.994;21.458;2022-08-11T03:22:04;11.57;;;7.10;;
52316;SDS011;38725;41.994;21.458;2022-08-11T03:30:00;8.73;;;5.85;;
52316;SDS011;38725;41.994;21.458;2022-08-11T03:32:29;9.05;;;6.72;;
52316;SDS011;38725;41.994;21.458;2022-08-11T03:34:58;10.30;;;6.15;;
52316;SDS011;38725;41.994;21.458;2022-08-11T03:42:55;8.20;;;5.85;;
52316;SDS011;38725;41.994;21.458;2022-08-11T03:48:08;8.13;;;5.50;;
52316;SDS011;38725;41.994;21.458;2022-08-11T04:11:45;7.13;;;5.78;;
52316;SDS011;38725;41.994;21.458;2022-08-11T04:22:43;11.32;;;6.43;;
52316;SDS011;38725;41.994;21.458;2022-08-11T04:25:19;8.43;;;5.75;;
52316;SDS011;38725;41.994;21.458;2022-08-11T04:35:47;10.02;;;5.80;;
52316;SDS011;38725;41.994;21.458;2022-08-11T04:38:30;9.45;;;5.78;;
52316;SDS011;38725;41.994;21.458;2022-08-11T04:41:13;8.38;;;5.30;;
52316;SDS011;38725;41.994;21.458;2022-08-11T04:43:54;10.80;;;6.30;;
52316;SDS011;38725;41.994;21.458;2022-08-11T04:49:11;8.48;;;5.65;;
52316;SDS011;38725;41.994;21.458;2022-08-11T04:57:46;9.95;;;6.25;;
52316;SDS011;38725;41.994;21.458;2022-08-11T05:03:42;12.90;;;6.82;;
52316;SDS011;38725;41.994;21.458;2022-08-11T05:12:26;21.40;;;14.23;;
52316;SDS011;38725;41.994;21.458;2022-08-11T05:15:00;21.90;;;16.25;;
52316;SDS011;38725;41.994;21.458;2022-08-11T05:17:43;20.83;;;13.80;;
52316;SDS011;38725;41.994;21.458;2022-08-11T05:20:28;17.90;;;13.20;;
52316;SDS011;38725;41.994;21.458;2022-08-11T05:23:13;15.63;;;11.43;;
52316;SDS011;38725;41.994;21.458;2022-08-11T05:28:45;19.08;;;11.25;;
52316;SDS011;38725;41.994;21.458;2022-08-11T05:31:35;12.18;;;7.35;;
52316;SDS011;38725;41.994;21.458;2022-08-11T05:34:28;10.00;;;5.70;;
52316;SDS011;38725;41.994;21.458;2022-08-11T05:37:32;8.30;;;5.82;;
52316;SDS011;38725;41.994;21.458;2022-08-11T05:40:09;8.35;;;5.80;;
52316;SDS011;38725;41.994;21.458;2022-08-11T05:42:55;10.20;;;5.63;;
52316;SDS011;38725;41.994;21.458;2022-08-11T05:45:41;7.57;;;4.97;;
52316;SDS011;38725;41.994;21.458;2022-08-11T05:48:35;7.80;;;5.63;;
52316;SDS011;38725;41.994;21.458;2022-08-11T05:51:21;10.35;;;5.65;;
52316;SDS011;38725;41.994;21.458;2022-08-11T05:54:06;8.20;;;5.50;;
52316;SDS011;38725;41.994;21.458;2022-08-11T05:56:53;8.05;;;5.40;;
52316;SDS011;38725;41.994;21.458;2022-08-11T05:59:20;6.82;;;5.03;;
52316;SDS011;38725;41.994;21.458;2022-08-11T06:01:47;9.75;;;6.32;;
52316;SDS011;38725;41.994;21.458;2022-08-11T06:04:23;9.25;;;5.50;;
52316;SDS011;38725;41.994;21.458;2022-08-11T06:07:00;10.73;;;6.32;;
52316;SDS011;38725;41.994;21.458;2022-08-11T06:09:35;9.50;;;5.97;;
52316;SDS011;38725;41.994;21.458;2022-08-11T06:14:28;12.63;;;5.57;;
52316;SDS011;38725;41.994;21.458;2022-08-11T06:16:56;7.28;;;5.18;;
52316;SDS011;38725;41.994;21.458;2022-08-11T06:19:30;8.57;;;5.43;;
52316;SDS011;38725;41.994;21.458;2022-08-11T06:21:57;10.63;;;5.07;;
52316;SDS011;38725;41.994;21.458;2022-08-11T06:24:24;9.55;;;5.35;;
52316;SDS011;38725;41.994;21.458;2022-08-11T06:26:52;7.32;;;3.85;;
52316;SDS011;38725;41.994;21.458;2022-08-11T06:29:19;8.38;;;3.05;;
52316;SDS011;38725;41.994;21.458;2022-08-11T06:31:50;7.05;;;2.80;;
52316;SDS011;38725;41.994;21.458;2022-08-11T06:37:34;5.95;;;2.90;;
52316;SDS011;38725;41.994;21.458;2022-08-11T06:40:08;7.65;;;2.72;;
52316;SDS011;38725;41.994;21.458;2022-08-11T06:45:15;7.78;;;3.03;;
52316;SDS011;38725;41.994;21.458;2022-08-11T06:47:44;4.60;;;2.60;;
52316;SDS011;38725;41.994;21.458;2022-08-11T06:50:15;4.43;;;2.88;;
52316;SDS011;38725;41.994;21.458;2022-08-11T06:53:00;8.32;;;3.00;;
52316;SDS011;38725;41.994;21.458;2022-08-11T06:55:27;5.28;;;2.85;;
52316;SDS011;38725;41.994;21.458;2022-08-11T06:58:16;6.00;;;2.75;;
52316;SDS011;38725;41.994;21.458;2022-08-11T07:01:04;3.78;;;2.70;;
52316;SDS011;38725;41.994;21.458;2022-08-11T07:03:36;5.78;;;3.20;;
52316;SDS011;38725;41.994;21.458;2022-08-11T07:14:23;6.60;;;2.60;;
52316;SDS011;38725;41.994;21.458;2022-08-11T07:17:09;6.40;;;2.08;;
52316;SDS011;38725;41.994;21.458;2022-08-11T07:19:36;6.10;;;2.53;;
52316;SDS011;38725;41.994;21.458;2022-08-11T07:22:24;5.82;;;3.50;;
52316;SDS011;38725;41.994;21.458;2022-08-11T07:25:11;4.30;;;2.15;;
52316;SDS011;38725;41.994;21.458;2022-08-11T07:27:59;3.53;;;2.28;;
52316;SDS011;38725;41.994;21.458;2022-08-11T07:30:45;3.85;;;2.67;;
52316;SDS011;38725;41.994;21.458;2022-08-11T07:33:12;4.20;;;2.40;;
52316;SDS011;38725;41.994;21.458;2022-08-11T07:35:43;3.88;;;2.00;;
52316;SDS011;38725;41.994;21.458;2022-08-11T07:38:14;3.83;;;2.05;;
52316;SDS011;38725;41.994;21.458;2022-08-11T07:40:41;8.07;;;2.33;;
52316;SDS011;38725;41.994;21.458;2022-08-11T07:43:08;5.30;;;1.95;;
52316;SDS011;38725;41.994;21.458;2022-08-11T07:45:35;3.13;;;1.88;;
52316;SDS011;38725;41.994;21.458;2022-08-11T07:48:21;3.17;;;1.88;;
52316;SDS011;38725;41.994;21.458;2022-08-11T07:51:06;3.35;;;2.10;;
52316;SDS011;38725;41.994;21.458;2022-08-11T07:53:52;4.32;;;2.20;;
52316;SDS011;38725;41.994;21.458;2022-08-11T07:56:18;3.15;;;2.08;;
52316;SDS011;38725;41.994;21.458;2022-08-11T07:58:44;2.90;;;1.83;;
52316;SDS011;38725;41.994;21.458;2022-08-11T08:01:29;3.08;;;1.90;;
52316;SDS011;38725;41.994;21.458;2022-08-11T08:04:15;4.03;;;1.90;;
52316;SDS011;38725;41.994;21.458;2022-08-11T08:07:01;4.85;;;2.25;;
52316;SDS011;38725;41.994;21.458;2022-08-11T08:09:47;6.13;;;1.85;;
52316;SDS011;38725;41.994;21.458;2022-08-11T08:12:32;5.22;;;1.90;;
52316;SDS011;38725;41.994;21.458;2022-08-11T08:15:17;4.60;;;2.03;;
52316;SDS011;38725;41.994;21.458;2022-08-11T08:18:03;3.45;;;1.85;;
52316;SDS011;38725;41.994;21.458;2022-08-11T08:20:35;3.47;;;1.88;;
52316;SDS011;38725;41.994;21.458;2022-08-11T08:23:02;5.32;;;1.80;;
52316;SDS011;38725;41.994;21.458;2022-08-11T08:25:33;2.67;;;1.80;;
52316;SDS011;38725;41.994;21.458;2022-08-11T08:28:01;3.17;;;1.95;;
52316;SDS011;38725;41.994;21.458;2022-08-11T08:30:28;3.58;;;1.92;;
52316;SDS011;38725;41.994;21.458;2022-08-11T08:33:18;3.40;;;2.00;;
52316;SDS011;38725;41.994;21.458;2022-08-11T08:35:46;4.53;;;1.70;;
52316;SDS011;38725;41.994;21.458;2022-08-11T08:38:13;2.72;;;1.67;;
52316;SDS011;38725;41.994;21.458;2022-08-11T08:40:41;2.92;;;1.95;;
52316;SDS011;38725;41.994;21.458;2022-08-11T08:43:09;3.25;;;1.77;;
52316;SDS011;38725;41.994;21.458;2022-08-11T08:45:39;3.92;;;1.90;;
52316;SDS011;38725;41.994;21.458;2022-08-11T08:48:10;3.45;;;1.90;;
52316;SDS011;38725;41.994;21.458;2022-08-11T08:50:42;6.78;;;2.30;;
52316;SDS011;38725;41.994;21.458;2022-08-11T08:53:28;3.35;;;2.22;;
52316;SDS011;38725;41.994;21.458;2022-08-11T08:56:00;4.20;;;2.13;;
52316;SDS011;38725;41.994;21.458;2022-08-11T08:58:26;2.30;;;1.90;;
52316;SDS011;38725;41.994;21.458;2022-08-11T09:00:53;9.18;;;1.80;;
52316;SDS011;38725;41.994;21.458;2022-08-11T09:03:21;3.50;;;1.73;;
52316;SDS011;38725;41.994;21.458;2022-08-11T09:05:48;5.88;;;1.60;;
52316;SDS011;38725;41.994;21.458;2022-08-11T09:08:18;3.17;;;1.67;;
52316;SDS011;38725;41.994;21.458;2022-08-11T09:10:46;6.03;;;2.22;;
52316;SDS011;38725;41.994;21.458;2022-08-11T09:13:32;3.42;;;1.80;;
52316;SDS011;38725;41.994;21.458;2022-08-11T09:15:59;2.28;;;1.67;;
52316;SDS011;38725;41.994;21.458;2022-08-11T09:18:26;3.05;;;2.00;;
52316;SDS011;38725;41.994;21.458;2022-08-11T09:20:52;4.00;;;1.92;;
52316;SDS011;38725;41.994;21.458;2022-08-11T09:23:19;4.43;;;2.10;;
52316;SDS011;38725;41.994;21.458;2022-08-11T09:26:03;2.30;;;1.90;;
52316;SDS011;38725;41.994;21.458;2022-08-11T09:28:50;4.90;;;1.70;;
52316;SDS011;38725;41.994;21.458;2022-08-11T09:31:17;3.75;;;2.40;;
52316;SDS011;38725;41.994;21.458;2022-08-11T09:33:46;3.08;;;1.83;;
52316;SDS011;38725;41.994;21.458;2022-08-11T09:36:13;5.80;;;2.08;;
52316;SDS011;38725;41.994;21.458;2022-08-11T09:38:59;3.03;;;1.73;;
52316;SDS011;38725;41.994;21.458;2022-08-11T09:41:44;2.47;;;1.95;;
52316;SDS011;38725;41.994;21.458;2022-08-11T09:44:10;2.60;;;1.75;;
52316;SDS011;38725;41.994;21.458;2022-08-11T09:46:55;5.05;;;2.10;;
52316;SDS011;38725;41.994;21.458;2022-08-11T09:49:23;3.35;;;1.80;;
52316;SDS011;38725;41.994;21.458;2022-08-11T09:51:50;3.70;;;1.98;;
52316;SDS011;38725;41.994;21.458;2022-08-11T09:54:17;3.15;;;1.90;;
52316;SDS011;38725;41.994;21.458;2022-08-11T09:56:43;4.68;;;2.00;;
52316;SDS011;38725;41.994;21.458;2022-08-11T09:59:28;4.00;;;1.83;;
52316;SDS011;38725;41.994;21.458;2022-08-11T10:01:56;4.00;;;1.92;;
52316;SDS011;38725;41.994;21.458;2022-08-11T10:04:42;3.72;;;2.03;;
52316;SDS011;38725;41.994;21.458;2022-08-11T10:07:13;3.42;;;2.15;;
52316;SDS011;38725;41.994;21.458;2022-08-11T10:12:22;3.40;;;1.67;;
52316;SDS011;38725;41.994;21.458;2022-08-11T10:14:52;3.30;;;2.15;;
52316;SDS011;38725;41.994;21.458;2022-08-11T10:17:38;6.95;;;2.03;;
52316;SDS011;38725;41.994;21.458;2022-08-11T10:20:25;3.25;;;1.90;;
52316;SDS011;38725;41.994;21.458;2022-08-11T10:22:52;3.88;;;1.92;;
52316;SDS011;38725;41.994;21.458;2022-08-11T10:25:37;5.25;;;1.90;;
52316;SDS011;38725;41.994;21.458;2022-08-11T10:28:23;3.03;;;2.20;;
52316;SDS011;38725;41.994;21.458;2022-08-11T10:30:49;4.55;;;1.70;;
52316;SDS011;38725;41.994;21.458;2022-08-11T10:33:34;2.17;;;1.42;;
52316;SDS011;38725;41.994;21.458;2022-08-11T10:36:20;3.28;;;1.70;;
52316;SDS011;38725;41.994;21.458;2022-08-11T10:38:46;4.05;;;1.90;;
52316;SDS011;38725;41.994;21.458;2022-08-11T10:41:17;3.65;;;1.55;;
52316;SDS011;38725;41.994;21.458;2022-08-11T10:44:02;2.33;;;1.40;;
52316;SDS011;38725;41.994;21.458;2022-08-11T10:46:29;2.95;;;1.63;;
52316;SDS011;38725;41.994;21.458;2022-08-11T10:49:14;1.70;;;1.55;;
52316;SDS011;38725;41.994;21.458;2022-08-11T10:51:41;1.67;;;1.40;;
52316;SDS011;38725;41.994;21.458;2022-08-11T10:54:26;2.65;;;1.95;;
52316;SDS011;38725;41.994;21.458;2022-08-11T10:57:11;13.52;;;2.15;;
52316;SDS011;38725;41.994;21.458;2022-08-11T10:59:58;2.85;;;1.90;;
52316;SDS011;38725;41.994;21.458;2022-08-11T11:02:24;4.70;;;2.00;;
52316;SDS011;38725;41.994;21.458;2022-08-11T11:05:12;3.78;;;2.05;;
52316;SDS011;38725;41.994;21.458;2022-08-11T11:10:27;4.38;;;2.40;;
52316;SDS011;38725;41.994;21.458;2022-08-11T11:12:56;4.07;;;2.20;;
52316;SDS011;38725;41.994;21.458;2022-08-11T11:15:43;2.97;;;2.00;;
52316;SDS011;38725;41.994;21.458;2022-08-11T11:18:31;5.70;;;2.28;;
52316;SDS011;38725;41.994;21.458;2022-08-11T11:21:09;4.80;;;2.80;;
52316;SDS011;38725;41.994;21.458;2022-08-11T11:29:06;5.57;;;2.65;;
52316;SDS011;38725;41.994;21.458;2022-08-11T11:36:53;6.43;;;2.40;;
52316;SDS011;38725;41.994;21.458;2022-08-11T11:39:30;5.57;;;3.25;;
52316;SDS011;38725;41.994;21.458;2022-08-11T11:42:01;7.50;;;3.35;;
52316;SDS011;38725;41.994;21.458;2022-08-11T11:44:29;4.00;;;2.47;;
52316;SDS011;38725;41.994;21.458;2022-08-11T11:46:55;2.70;;;1.85;;
52316;SDS011;38725;41.994;21.458;2022-08-11T11:49:22;17.08;;;2.90;;
52316;SDS011;38725;41.994;21.458;2022-08-11T11:51:50;7.80;;;3.33;;
52316;SDS011;38725;41.994;21.458;2022-08-11T11:54:18;4.57;;;2.17;;
52316;SDS011;38725;41.994;21.458;2022-08-11T11:56:53;6.40;;;2.03;;
52316;SDS011;38725;41.994;21.458;2022-08-11T11:59:20;3.58;;;2.20;;
52316;SDS011;38725;41.994;21.458;2022-08-11T12:02:09;4.28;;;2.33;;
52316;SDS011;38725;41.994;21.458;2022-08-11T12:04:36;5.10;;;2.28;;
52316;SDS011;38725;41.994;21.458;2022-08-11T12:07:02;4.90;;;2.20;;
52316;SDS011;38725;41.994;21.458;2022-08-11T12:09:48;4.10;;;1.95;;
52316;SDS011;38725;41.994;21.458;2022-08-11T12:12:14;5.40;;;2.25;;
52316;SDS011;38725;41.994;21.458;2022-08-11T12:15:00;3.47;;;1.85;;
52316;SDS011;38725;41.994;21.458;2022-08-11T12:17:26;4.60;;;2.30;;
52316;SDS011;38725;41.994;21.458;2022-08-11T12:19:52;4.43;;;2.40;;
52316;SDS011;38725;41.994;21.458;2022-08-11T12:22:19;4.50;;;2.67;;
52316;SDS011;38725;41.994;21.458;2022-08-11T12:25:04;3.88;;;2.10;;
52316;SDS011;38725;41.994;21.458;2022-08-11T12:27:49;3.42;;;2.50;;
52316;SDS011;38725;41.994;21.458;2022-08-11T12:30:17;5.32;;;2.47;;
52316;SDS011;38725;41.994;21.458;2022-08-11T12:32:44;3.20;;;2.90;;
52316;SDS011;38725;41.994;21.458;2022-08-11T12:35:10;7.70;;;2.50;;
52316;SDS011;38725;41.994;21.458;2022-08-11T12:37:40;8.45;;;3.08;;
52316;SDS011;38725;41.994;21.458;2022-08-11T12:40:11;5.70;;;2.25;;
52316;SDS011;38725;41.994;21.458;2022-08-11T12:42:58;3.67;;;2.95;;
52316;SDS011;38725;41.994;21.458;2022-08-11T12:45:44;2.92;;;2.38;;
52316;SDS011;38725;41.994;21.458;2022-08-11T12:48:12;3.40;;;2.50;;
52316;SDS011;38725;41.994;21.458;2022-08-11T12:51:04;5.50;;;2.03;;
52316;SDS011;38725;41.994;21.458;2022-08-11T12:53:59;3.58;;;2.00;;
52316;SDS011;38725;41.994;21.458;2022-08-11T12:56:27;3.20;;;2.17;;
52316;SDS011;38725;41.994;21.458;2022-08-11T12:59:14;3.30;;;2.83;;
52316;SDS011;38725;41.994;21.458;2022-08-11T13:02:01;5.88;;;2.30;;
52316;SDS011;38725;41.994;21.458;2022-08-11T13:04:46;7.28;;;2.15;;
52316;SDS011;38725;41.994;21.458;2022-08-11T13:07:20;9.02;;;2.42;;
52316;SDS011;38725;41.994;21.458;2022-08-11T13:09:47;4.68;;;2.20;;
52316;SDS011;38725;41.994;21.458;2022-08-11T13:12:13;2.83;;;2.20;;
52316;SDS011;38725;41.994;21.458;2022-08-11T13:15:02;5.95;;;2.10;;
52316;SDS011;38725;41.994;21.458;2022-08-11T13:17:28;4.25;;;2.50;;
52316;SDS011;38725;41.994;21.458;2022-08-11T13:19:58;4.53;;;2.40;;
52316;SDS011;38725;41.994;21.458;2022-08-11T13:22:25;5.10;;;2.33;;
52316;SDS011;38725;41.994;21.458;2022-08-11T13:24:51;4.43;;;2.50;;
52316;SDS011;38725;41.994;21.458;2022-08-11T13:27:19;5.35;;;2.38;;
52316;SDS011;38725;41.994;21.458;2022-08-11T13:29:46;3.03;;;2.45;;
52316;SDS011;38725;41.994;21.458;2022-08-11T13:32:14;3.55;;;2.20;;
52316;SDS011;38725;41.994;21.458;2022-08-11T13:34:41;8.18;;;2.58;;
52316;SDS011;38725;41.994;21.458;2022-08-11T13:37:11;3.72;;;2.30;;
52316;SDS011;38725;41.994;21.458;2022-08-11T13:39:39;3.63;;;2.15;;
52316;SDS011;38725;41.994;21.458;2022-08-11T13:42:08;3.80;;;2.45;;
52316;SDS011;38725;41.994;21.458;2022-08-11T13:44:35;3.47;;;2.85;;
52316;SDS011;38725;41.994;21.458;2022-08-11T13:47:03;3.95;;;2.35;;
52316;SDS011;38725;41.994;21.458;2022-08-11T13:49:30;9.10;;;3.10;;
52316;SDS011;38725;41.994;21.458;2022-08-11T13:51:57;3.13;;;2.55;;
52316;SDS011;38725;41.994;21.458;2022-08-11T13:54:26;4.75;;;3.10;;
52316;SDS011;38725;41.994;21.458;2022-08-11T13:56:54;4.03;;;2.42;;
52316;SDS011;38725;41.994;21.458;2022-08-11T13:59:21;3.28;;;2.80;;
52316;SDS011;38725;41.994;21.458;2022-08-11T14:01:50;12.75;;;3.25;;
52316;SDS011;38725;41.994;21.458;2022-08-11T14:05:00;4.70;;;3.60;;
52316;SDS011;38725;41.994;21.458;2022-08-11T14:07:07;2.97;;;2.60;;
52316;SDS011;38725;41.994;21.458;2022-08-11T14:09:35;2.78;;;2.35;;
52316;SDS011;38725;41.994;21.458;2022-08-11T14:12:02;3.70;;;2.60;;
52316;SDS011;38725;41.994;21.458;2022-08-11T14:15:06;5.60;;;2.80;;
52316;SDS011;38725;41.994;21.458;2022-08-11T14:17:35;3.67;;;2.53;;
52316;SDS011;38725;41.994;21.458;2022-08-11T14:20:05;11.32;;;3.17;;
52316;SDS011;38725;41.994;21.458;2022-08-11T14:22:32;14.35;;;3.83;;
52316;SDS011;38725;41.994;21.458;2022-08-11T14:25:00;3.67;;;2.72;;
52316;SDS011;38725;41.994;21.458;2022-08-11T14:27:26;5.07;;;2.67;;
52316;SDS011;38725;41.994;21.458;2022-08-11T14:29:55;3.42;;;2.30;;
52316;SDS011;38725;41.994;21.458;2022-08-11T14:32:22;7.82;;;2.50;;
52316;SDS011;38725;41.994;21.458;2022-08-11T14:34:49;3.58;;;2.20;;
52316;SDS011;38725;41.994;21.458;2022-08-11T14:37:19;4.85;;;3.08;;
52316;SDS011;38725;41.994;21.458;2022-08-11T14:39:50;3.55;;;2.70;;
52316;SDS011;38725;41.994;21.458;2022-08-11T14:42:18;4.97;;;2.58;;
52316;SDS011;38725;41.994;21.458;2022-08-11T14:45:04;3.85;;;3.13;;
52316;SDS011;38725;41.994;21.458;2022-08-11T14:47:51;3.63;;;2.40;;
52316;SDS011;38725;41.994;21.458;2022-08-11T14:50:20;4.50;;;2.50;;
52316;SDS011;38725;41.994;21.458;2022-08-11T14:52:50;8.73;;;2.78;;
52316;SDS011;38725;41.994;21.458;2022-08-11T14:55:19;3.10;;;2.55;;
52316;SDS011;38725;41.994;21.458;2022-08-11T14:58:07;12.93;;;4.43;;
52316;SDS011;38725;41.994;21.458;2022-08-11T15:00:34;4.57;;;2.75;;
52316;SDS011;38725;41.994;21.458;2022-08-11T15:03:02;5.75;;;2.92;;
52316;SDS011;38725;41.994;21.458;2022-08-11T15:05:48;4.50;;;2.80;;
52316;SDS011;38725;41.994;21.458;2022-08-11T15:08:15;4.60;;;2.70;;
52316;SDS011;38725;41.994;21.458;2022-08-11T15:10:41;4.75;;;2.58;;
52316;SDS011;38725;41.994;21.458;2022-08-11T15:13:08;6.03;;;3.53;;
52316;SDS011;38725;41.994;21.458;2022-08-11T15:15:34;7.07;;;3.40;;
52316;SDS011;38725;41.994;21.458;2022-08-11T15:18:20;3.38;;;2.65;;
52316;SDS011;38725;41.994;21.458;2022-08-11T15:20:48;3.92;;;2.60;;
52316;SDS011;38725;41.994;21.458;2022-08-11T15:23:33;4.93;;;2.85;;
52316;SDS011;38725;41.994;21.458;2022-08-11T15:26:24;11.75;;;2.58;;
52316;SDS011;38725;41.994;21.458;2022-08-11T15:29:32;2.63;;;1.90;;
52316;SDS011;38725;41.994;21.458;2022-08-11T15:32:18;5.95;;;2.65;;
52316;SDS011;38725;41.994;21.458;2022-08-11T15:35:04;6.10;;;2.80;;
52316;SDS011;38725;41.994;21.458;2022-08-11T15:37:51;7.65;;;2.40;;
52316;SDS011;38725;41.994;21.458;2022-08-11T15:40:18;3.65;;;2.58;;
52316;SDS011;38725;41.994;21.458;2022-08-11T15:45:51;4.78;;;2.03;;
52316;SDS011;38725;41.994;21.458;2022-08-11T15:48:21;3.10;;;2.05;;
52316;SDS011;38725;41.994;21.458;2022-08-11T15:50:51;3.00;;;2.00;;
52316;SDS011;38725;41.994;21.458;2022-08-11T15:55:47;4.45;;;2.65;;
52316;SDS011;38725;41.994;21.458;2022-08-11T15:58:13;3.55;;;2.20;;
52316;SDS011;38725;41.994;21.458;2022-08-11T16:00:59;2.92;;;2.50;;
52316;SDS011;38725;41.994;21.458;2022-08-11T16:03:49;3.17;;;2.30;;
52316;SDS011;38725;41.994;21.458;2022-08-11T16:09:10;3.78;;;2.33;;
52316;SDS011;38725;41.994;21.458;2022-08-11T16:11:38;4.55;;;2.10;;
52316;SDS011;38725;41.994;21.458;2022-08-11T16:14:07;4.25;;;2.17;;
52316;SDS011;38725;41.994;21.458;2022-08-11T16:16:52;4.07;;;2.30;;
52316;SDS011;38725;41.994;21.458;2022-08-11T16:19:19;3.95;;;2.10;;
52316;SDS011;38725;41.994;21.458;2022-08-11T16:21:46;9.18;;;2.28;;
52316;SDS011;38725;41.994;21.458;2022-08-11T16:24:14;4.57;;;2.10;;
52316;SDS011;38725;41.994;21.458;2022-08-11T16:26:42;3.35;;;2.30;;
52316;SDS011;38725;41.994;21.458;2022-08-11T16:29:09;3.30;;;2.33;;
52316;SDS011;38725;41.994;21.458;2022-08-11T16:31:35;5.70;;;2.53;;
52316;SDS011;38725;41.994;21.458;2022-08-11T16:34:02;5.25;;;2.88;;
52316;SDS011;38725;41.994;21.458;2022-08-11T16:36:29;12.27;;;2.60;;
52316;SDS011;38725;41.994;21.458;2022-08-11T16:39:14;6.95;;;2.88;;
52316;SDS011;38725;41.994;21.458;2022-08-11T16:41:44;9.57;;;2.90;;
52316;SDS011;38725;41.994;21.458;2022-08-11T16:44:31;7.13;;;3.03;;
52316;SDS011;38725;41.994;21.458;2022-08-11T16:47:17;5.38;;;2.78;;
52316;SDS011;38725;41.994;21.458;2022-08-11T16:49:47;7.95;;;2.70;;
52316;SDS011;38725;41.994;21.458;2022-08-11T16:52:15;12.40;;;2.78;;
52316;SDS011;38725;41.994;21.458;2022-08-11T16:54:42;3.58;;;2.80;;
52316;SDS011;38725;41.994;21.458;2022-08-11T16:57:16;6.80;;;2.95;;
52316;SDS011;38725;41.994;21.458;2022-08-11T17:00:03;7.03;;;3.17;;
52316;SDS011;38725;41.994;21.458;2022-08-11T17:02:39;6.68;;;3.33;;
52316;SDS011;38725;41.994;21.458;2022-08-11T17:05:25;4.78;;;2.90;;
52316;SDS011;38725;41.994;21.458;2022-08-11T17:08:09;9.27;;;3.80;;
52316;SDS011;38725;41.994;21.458;2022-08-11T17:10:59;6.85;;;4.07;;
52316;SDS011;38725;41.994;21.458;2022-08-11T17:16:19;6.43;;;4.30;;
52316;SDS011;38725;41.994;21.458;2022-08-11T17:21:18;6.80;;;4.20;;
52316;SDS011;38725;41.994;21.458;2022-08-11T17:23:50;6.60;;;4.00;;
52316;SDS011;38725;41.994;21.458;2022-08-11T17:26:23;6.38;;;4.03;;
52316;SDS011;38725;41.994;21.458;2022-08-11T17:28:51;8.02;;;4.15;;
52316;SDS011;38725;41.994;21.458;2022-08-11T17:31:20;9.60;;;3.80;;
52316;SDS011;38725;41.994;21.458;2022-08-11T17:34:06;8.23;;;4.03;;
52316;SDS011;38725;41.994;21.458;2022-08-11T17:36:52;5.57;;;3.50;;
52316;SDS011;38725;41.994;21.458;2022-08-11T17:39:18;4.78;;;3.60;;
52316;SDS011;38725;41.994;21.458;2022-08-11T17:41:45;10.23;;;3.90;;
52316;SDS011;38725;41.994;21.458;2022-08-11T17:44:30;5.07;;;3.38;;
52316;SDS011;38725;41.994;21.458;2022-08-11T17:47:16;5.18;;;3.70;;
52316;SDS011;38725;41.994;21.458;2022-08-11T17:50:01;6.47;;;4.35;;
52316;SDS011;38725;41.994;21.458;2022-08-11T17:52:28;7.82;;;4.22;;
52316;SDS011;38725;41.994;21.458;2022-08-11T17:55:14;7.57;;;3.92;;
52316;SDS011;38725;41.994;21.458;2022-08-11T17:57:59;7.22;;;3.97;;
52316;SDS011;38725;41.994;21.458;2022-08-11T18:00:44;9.60;;;3.85;;
52316;SDS011;38725;41.994;21.458;2022-08-11T18:03:10;6.85;;;3.63;;
52316;SDS011;38725;41.994;21.458;2022-08-11T18:05:53;6.38;;;4.18;;
52316;SDS011;38725;41.994;21.458;2022-08-11T18:08:20;6.95;;;4.05;;
52316;SDS011;38725;41.994;21.458;2022-08-11T18:11:06;7.00;;;3.88;;
52316;SDS011;38725;41.994;21.458;2022-08-11T18:13:51;7.25;;;4.20;;
52316;SDS011;38725;41.994;21.458;2022-08-11T18:16:37;7.13;;;4.55;;
52316;SDS011;38725;41.994;21.458;2022-08-11T18:22:15;7.38;;;4.40;;
52316;SDS011;38725;41.994;21.458;2022-08-11T18:25:00;6.93;;;3.78;;
52316;SDS011;38725;41.994;21.458;2022-08-11T18:27:46;6.55;;;3.47;;
52316;SDS011;38725;41.994;21.458;2022-08-11T18:30:33;5.65;;;3.42;;
52316;SDS011;38725;41.994;21.458;2022-08-11T18:33:19;6.03;;;3.63;;
52316;SDS011;38725;41.994;21.458;2022-08-11T18:36:05;7.00;;;4.40;;
52316;SDS011;38725;41.994;21.458;2022-08-11T18:38:51;9.13;;;4.45;;
52316;SDS011;38725;41.994;21.458;2022-08-11T18:41:37;8.25;;;4.65;;
52316;SDS011;38725;41.994;21.458;2022-08-11T18:44:23;6.25;;;4.10;;
52316;SDS011;38725;41.994;21.458;2022-08-11T18:47:10;6.35;;;3.78;;
52316;SDS011;38725;41.994;21.458;2022-08-11T18:49:57;7.80;;;4.10;;
52316;SDS011;38725;41.994;21.458;2022-08-11T18:52:44;6.22;;;4.13;;
52316;SDS011;38725;41.994;21.458;2022-08-11T18:55:32;4.72;;;3.80;;
52316;SDS011;38725;41.994;21.458;2022-08-11T18:58:20;6.40;;;3.70;;
52316;SDS011;38725;41.994;21.458;2022-08-11T19:01:06;5.90;;;4.25;;
52316;SDS011;38725;41.994;21.458;2022-08-11T19:03:52;8.18;;;4.28;;